createdAt,value
2022-08-23T00:27:09.196Z,13.8
2022-08-23T00:30:09.213Z,13.8
2022-08-23T00:33:09.212Z,13.7
2022-08-23T00:36:09.178Z,13.6
2022-08-23T00:39:09.269Z,13.6
2022-08-23T00:42:09.236Z,13.6
2022-08-23T00:45:09.228Z,13.5
2022-08-23T00:48:09.665Z,13.5
2022-08-23T00:51:09.219Z,13.5
2022-08-23T00:54:11.789Z,13.6
2022-08-23T00:57:09.252Z,13.7
2022-08-23T01:00:09.235Z,13.8
2022-08-23T01:03:13.795Z,13.8
2022-08-23T01:06:09.182Z,13.8
2022-08-23T01:09:09.164Z,13.9
2022-08-23T01:12:09.262Z,13.9
2022-08-23T01:15:09.218Z,13.9
2022-08-23T01:18:09.624Z,14.1
2022-08-23T01:21:17.402Z,14.3
2022-08-23T01:24:09.196Z,14.3
2022-08-23T01:27:09.219Z,14.4
2022-08-23T01:30:09.244Z,14.4
2022-08-23T01:33:09.325Z,14.4
2022-08-23T01:36:16.354Z,14.4
2022-08-23T01:39:09.242Z,14.4
2022-08-23T01:42:15.959Z,14.4
2022-08-23T01:45:09.227Z,14.3
2022-08-23T01:48:09.816Z,14.3
2022-08-23T01:51:09.235Z,14.3
2022-08-23T01:54:09.187Z,14.3
2022-08-23T01:57:09.238Z,14.1
2022-08-23T02:00:09.211Z,13.7
2022-08-23T02:03:09.657Z,13.4
2022-08-23T02:06:09.177Z,13.3
2022-08-23T02:09:21.575Z,13.3
2022-08-23T02:12:09.182Z,13.3
2022-08-23T02:15:09.307Z,13.4
2022-08-23T02:18:09.662Z,13.6
2022-08-23T02:21:09.588Z,13.6
2022-08-23T02:24:11.207Z,13.8
2022-08-23T02:27:11.447Z,13.8
2022-08-23T02:30:12.935Z,13.6
2022-08-23T02:33:14.513Z,13.4
2022-08-23T02:36:09.321Z,13.3
2022-08-23T02:39:09.259Z,13.1
2022-08-23T02:42:11.552Z,12.9
2022-08-23T02:45:09.203Z,12.8
2022-08-23T02:48:09.607Z,12.8
2022-08-23T02:51:09.200Z,12.5
2022-08-23T02:54:09.235Z,12.6
2022-08-23T02:57:09.196Z,12.7
2022-08-23T03:00:09.771Z,12.8
2022-08-23T03:03:09.195Z,12.7
2022-08-23T03:06:34.661Z,12.4
2022-08-23T03:09:09.188Z,12.2
2022-08-23T03:12:09.232Z,12.2
2022-08-23T03:15:10.071Z,12.4
2022-08-23T03:18:09.589Z,12.4
2022-08-23T03:21:09.198Z,12.3
2022-08-23T03:24:14.859Z,12
2022-08-23T03:27:09.415Z,11.8
2022-08-23T03:30:20.187Z,11.8
2022-08-23T03:33:09.166Z,11.8
2022-08-23T03:36:09.227Z,11.7
2022-08-23T03:39:09.164Z,11.6
2022-08-23T03:42:09.234Z,11.5
2022-08-23T03:45:11.541Z,11.4
2022-08-23T03:48:09.553Z,11.3
2022-08-23T03:51:09.193Z,11.4
2022-08-23T03:54:09.142Z,11.5
2022-08-23T03:57:09.282Z,11.4
2022-08-23T04:00:09.303Z,11.6
2022-08-23T04:03:09.189Z,11.6
2022-08-23T04:06:09.872Z,11.6
2022-08-23T04:09:09.195Z,11.5
2022-08-23T04:12:21.904Z,11.4
2022-08-23T04:15:11.440Z,11.3
2022-08-23T04:18:11.552Z,11.3
2022-08-23T04:21:09.228Z,11.3
2022-08-23T04:24:09.223Z,11.3
2022-08-23T04:27:09.215Z,11.4
2022-08-23T04:30:16.020Z,11.4
2022-08-23T04:33:23.539Z,11.4
2022-08-23T04:36:09.240Z,11.3
2022-08-23T04:39:09.224Z,11.3
2022-08-23T04:42:12.068Z,11.2
2022-08-23T04:45:09.450Z,11.1
2022-08-23T04:48:14.202Z,11.2
2022-08-23T04:51:09.277Z,11.2
2022-08-23T04:54:09.182Z,11.2
2022-08-23T04:57:09.216Z,11.3
2022-08-23T05:00:09.289Z,11.4
2022-08-23T05:03:09.234Z,11.5
2022-08-23T05:06:09.259Z,11.6
2022-08-23T05:09:09.220Z,11.7
2022-08-23T05:12:09.330Z,11.8
2022-08-23T05:15:09.239Z,11.8
2022-08-23T05:18:09.730Z,12
2022-08-23T05:21:09.180Z,12.1
2022-08-23T05:24:18.059Z,12.3
2022-08-23T05:27:15.127Z,12.5
2022-08-23T05:30:14.457Z,12.8
2022-08-23T05:33:13.251Z,13.1
2022-08-23T05:36:09.281Z,13.3
2022-08-23T05:39:09.295Z,13.4
2022-08-23T05:42:09.311Z,13.7
2022-08-23T05:45:19.448Z,14.5
2022-08-23T05:48:10.481Z,15.9
2022-08-23T05:51:09.247Z,17.5
2022-08-23T05:54:09.303Z,18.8
2022-08-23T05:57:09.261Z,20.2
2022-08-23T06:00:10.535Z,20.9
2022-08-23T06:03:09.216Z,20.9
2022-08-23T06:06:09.264Z,21.6
2022-08-23T06:09:09.240Z,22.2
2022-08-23T06:12:09.265Z,22.6
2022-08-23T06:15:09.246Z,22.7
2022-08-23T06:18:09.749Z,22.8
2022-08-23T06:21:09.213Z,23.1
2022-08-23T06:24:09.175Z,23
2022-08-23T06:27:09.314Z,23.3
2022-08-23T06:30:15.274Z,23.9
2022-08-23T06:33:09.222Z,24.3
2022-08-23T06:36:09.161Z,24.2
2022-08-23T06:39:09.337Z,24.6
2022-08-23T06:42:41.143Z,25.2
2022-08-23T06:45:09.376Z,25.6
2022-08-23T06:48:09.889Z,25.6
2022-08-23T06:51:12.694Z,25.4
2022-08-23T06:54:14.178Z,25.4
2022-08-23T06:57:09.235Z,25.3
2022-08-23T07:00:09.326Z,25.8
2022-08-23T07:03:10.498Z,26.2
2022-08-23T07:06:09.195Z,26.8
2022-08-23T07:09:09.187Z,26.9
2022-08-23T07:12:09.142Z,26.8
2022-08-23T07:15:09.699Z,26.8
2022-08-23T07:18:15.640Z,26.6
2022-08-23T07:21:09.235Z,26.8
2022-08-23T07:24:09.239Z,26.8
2022-08-23T07:27:09.517Z,26.8
2022-08-23T07:30:09.255Z,26.7
2022-08-23T07:33:13.880Z,26.9
2022-08-23T07:36:09.843Z,27.1
2022-08-23T07:39:09.245Z,27.1
2022-08-23T07:42:29.775Z,26.8
2022-08-23T07:45:12.916Z,26.8
2022-08-23T07:48:09.763Z,26.7
2022-08-23T07:51:12.758Z,26.2
2022-08-23T07:54:09.237Z,26.4
2022-08-23T07:57:10.051Z,26.7
2022-08-23T08:00:09.351Z,27.2
2022-08-23T08:03:09.853Z,27.8
2022-08-23T08:06:09.262Z,27.8
2022-08-23T08:09:09.301Z,28
2022-08-23T08:12:09.282Z,27.7
2022-08-23T08:15:09.239Z,27.6
2022-08-23T08:18:11.896Z,27.6
2022-08-23T08:21:09.219Z,27.8
2022-08-23T08:24:09.321Z,28.3
2022-08-23T08:27:10.081Z,28.3
2022-08-23T08:30:09.305Z,27.7
2022-08-23T08:33:10.190Z,27.5
2022-08-23T08:36:14.232Z,27.2
2022-08-23T08:39:12.553Z,27.6
2022-08-23T08:42:13.812Z,27.8
2022-08-23T08:45:11.087Z,28.3
2022-08-23T08:48:14.864Z,28
2022-08-23T08:51:09.264Z,27.9
2022-08-23T08:54:09.331Z,28.2
2022-08-23T08:57:09.312Z,27.8
2022-08-23T09:00:09.320Z,27.7
2022-08-23T09:03:09.608Z,27.9
2022-08-23T09:06:09.252Z,28
2022-08-23T09:09:09.198Z,28.1
2022-08-23T09:12:09.977Z,27.8
2022-08-23T09:15:09.339Z,27.6
2022-08-23T09:18:09.880Z,27.5
2022-08-23T09:21:09.338Z,27.9
2022-08-23T09:24:10.091Z,28.3
2022-08-23T09:27:09.221Z,27.8
2022-08-23T09:30:09.400Z,28.1
2022-08-23T09:33:10.007Z,27.7
2022-08-23T09:36:10.624Z,28.2
2022-08-23T09:39:09.174Z,28.1
2022-08-23T09:42:09.252Z,28.2
2022-08-23T09:45:09.198Z,28.8
2022-08-23T09:48:09.750Z,28.9
2022-08-23T09:51:09.229Z,29.1
2022-08-23T09:54:09.235Z,29.3
2022-08-23T09:57:09.273Z,28.9
2022-08-23T10:00:09.331Z,29.2
2022-08-23T10:03:09.839Z,28.6
2022-08-23T10:06:09.227Z,28.9
2022-08-23T10:09:09.279Z,28.6
2022-08-23T10:12:14.666Z,28.3
2022-08-23T10:15:11.475Z,28.2
2022-08-23T10:18:10.261Z,28.9
2022-08-23T10:21:09.256Z,29
2022-08-23T10:24:09.232Z,28.8
2022-08-23T10:27:09.263Z,28.6
2022-08-23T10:30:09.264Z,28.7
2022-08-23T10:33:09.220Z,28.9
2022-08-23T10:36:09.309Z,29.5
2022-08-23T10:39:11.170Z,29.2
2022-08-23T10:42:09.252Z,28.7
2022-08-23T10:45:09.263Z,28.9
2022-08-23T10:48:09.759Z,29.1
2022-08-23T10:51:09.248Z,28.6
2022-08-23T10:54:09.279Z,28.7
2022-08-23T10:57:09.189Z,29.3
2022-08-23T11:00:09.293Z,29.4
2022-08-23T11:03:09.633Z,28.8
2022-08-23T11:06:09.456Z,28.9
2022-08-23T11:09:09.207Z,29.5
2022-08-23T11:15:09.252Z,29.4
2022-08-23T11:24:09.302Z,29.8
2022-08-23T11:27:18.365Z,29.2
2022-08-23T11:30:09.313Z,28.9
2022-08-23T11:33:14.537Z,28.9
2022-08-23T11:36:09.220Z,29.6
2022-08-23T11:39:09.237Z,29.3
2022-08-23T11:42:09.230Z,29.4
2022-08-23T11:45:09.335Z,29.8
2022-08-23T11:48:09.543Z,29.7
2022-08-23T11:51:09.278Z,30.1
2022-08-23T11:54:09.242Z,29.9
2022-08-23T11:57:09.205Z,29.8
2022-08-23T12:00:09.416Z,30.3
2022-08-23T12:03:10.283Z,30.4
2022-08-23T12:06:09.201Z,30.1
2022-08-23T12:09:10.535Z,30.3
2022-08-23T12:12:10.996Z,30.7
2022-08-23T12:15:09.316Z,30.8
2022-08-23T12:18:11.401Z,30.8
2022-08-23T12:21:09.240Z,30.9
2022-08-23T12:24:10.126Z,30.3
2022-08-23T12:27:09.236Z,29.8
2022-08-23T12:30:09.414Z,29.9
2022-08-23T12:33:09.251Z,30.6
2022-08-23T12:36:20.703Z,30.9
2022-08-23T12:39:09.317Z,30.7
2022-08-23T12:42:11.242Z,30.4
2022-08-23T12:45:09.591Z,31.1
2022-08-23T12:48:10.358Z,31.7
2022-08-23T12:51:09.288Z,31.6
2022-08-23T12:54:09.326Z,31.4
2022-08-23T12:57:09.245Z,30.9
2022-08-23T13:00:26.900Z,30.9
2022-08-23T13:03:11.168Z,30.8
2022-08-23T13:06:15.932Z,30.6
2022-08-23T13:09:09.235Z,30.1
2022-08-23T13:12:09.277Z,29.7
2022-08-23T13:15:09.508Z,29.8
2022-08-23T13:18:10.043Z,29.7
2022-08-23T13:21:09.315Z,29.5
2022-08-23T13:24:09.667Z,29.3
2022-08-23T13:27:09.333Z,29.3
2022-08-23T13:30:09.431Z,29.4
2022-08-23T13:33:16.623Z,29.3
2022-08-23T13:36:17.552Z,29.2
2022-08-23T13:39:09.199Z,29.3
2022-08-23T13:42:09.327Z,29.2
2022-08-23T13:45:09.281Z,29.1
2022-08-23T13:48:09.279Z,29.1
2022-08-23T13:51:16.640Z,29.3
2022-08-23T13:54:09.369Z,29.6
2022-08-23T13:57:09.244Z,29.1
2022-08-23T14:00:09.480Z,28.8
2022-08-23T14:03:09.936Z,28.7
2022-08-23T14:06:09.196Z,28.6
2022-08-23T14:09:09.549Z,28.6
2022-08-23T14:12:17.719Z,29.1
2022-08-23T14:15:09.262Z,28.9
2022-08-23T14:18:09.243Z,28.7
2022-08-23T14:21:09.234Z,28.4
2022-08-23T14:24:09.209Z,28.7
2022-08-23T14:27:09.463Z,28.9
2022-08-23T14:30:09.413Z,28.9
2022-08-23T14:33:10.733Z,29.1
2022-08-23T14:36:09.241Z,28.9
2022-08-23T14:39:11.589Z,29
2022-08-23T14:42:09.261Z,29.6
2022-08-23T14:45:09.227Z,29.4
2022-08-23T14:48:10.956Z,29.1
2022-08-23T14:51:09.257Z,28.8
2022-08-23T14:54:09.458Z,28.5
2022-08-23T14:57:09.244Z,28.3
2022-08-23T15:00:09.482Z,28.4
2022-08-23T15:03:15.614Z,28.7
2022-08-23T15:06:09.218Z,28.7
2022-08-23T15:09:09.231Z,28.9
2022-08-23T15:15:10.838Z,28.6
2022-08-23T15:18:09.983Z,28.4
2022-08-23T15:21:09.225Z,28.4
2022-08-23T15:24:09.239Z,28.5
2022-08-23T15:27:09.218Z,28.3
2022-08-23T15:30:09.305Z,28.5
2022-08-23T15:33:14.848Z,28.4
2022-08-23T15:36:10.213Z,28.4
2022-08-23T15:39:09.188Z,28.5
2022-08-23T15:42:09.257Z,28.6
2022-08-23T15:45:09.289Z,28.3
2022-08-23T15:48:09.264Z,28.4
2022-08-23T15:51:09.243Z,28.2
2022-08-23T15:54:10.221Z,28.1
2022-08-23T15:57:09.209Z,28
2022-08-23T16:00:09.324Z,27.9
2022-08-23T16:03:30.546Z,27.7
2022-08-23T16:06:09.319Z,27.7
2022-08-23T16:09:09.291Z,27.8
2022-08-23T16:12:09.303Z,27.7
2022-08-23T16:15:09.308Z,27.6
2022-08-23T16:18:09.243Z,27.6
2022-08-23T16:21:09.209Z,27.5
2022-08-23T16:24:09.244Z,27.4
2022-08-23T16:27:09.189Z,27.4
2022-08-23T16:30:12.587Z,27.3
2022-08-23T16:33:09.799Z,27.2
2022-08-23T16:36:09.262Z,27.1
2022-08-23T16:39:09.246Z,27.2
2022-08-23T16:42:09.256Z,27.2
2022-08-23T16:45:09.197Z,27
2022-08-23T16:48:14.346Z,26.9
2022-08-23T16:51:09.279Z,26.8
2022-08-23T16:54:12.005Z,26.8
2022-08-23T16:57:09.242Z,26.8
2022-08-23T17:00:11.308Z,26.6
2022-08-23T17:03:10.245Z,26.6
2022-08-23T17:06:09.199Z,26.6
2022-08-23T17:09:09.301Z,26.5
2022-08-23T17:12:09.254Z,26.4
2022-08-23T17:15:09.192Z,26.4
2022-08-23T17:18:09.209Z,26.3
2022-08-23T17:21:09.337Z,26.1
2022-08-23T17:24:09.253Z,25.9
2022-08-23T17:27:09.214Z,25.9
2022-08-23T17:30:14.889Z,25.8
2022-08-23T17:33:09.706Z,25.6
2022-08-23T17:36:09.294Z,25.4
2022-08-23T17:39:09.235Z,25.4
2022-08-23T17:42:09.235Z,25.3
2022-08-23T17:45:09.245Z,25.1
2022-08-23T17:48:09.235Z,24.9
2022-08-23T17:51:09.172Z,24.9
2022-08-23T17:54:09.258Z,24.8
2022-08-23T17:57:11.238Z,24.6
2022-08-23T18:00:09.376Z,24.4
2022-08-23T18:03:10.046Z,24.3
2022-08-23T18:06:23.353Z,24.2
2022-08-23T18:09:09.231Z,24
2022-08-23T18:12:09.269Z,23.8
2022-08-23T18:15:09.263Z,23.6
2022-08-23T18:18:09.285Z,23.3
2022-08-23T18:21:09.602Z,22.9
2022-08-23T18:24:09.227Z,22.7
2022-08-23T18:27:10.349Z,22.6
2022-08-23T18:30:09.328Z,22.7
2022-08-23T18:33:14.634Z,22.6
2022-08-23T18:36:09.202Z,22.5
2022-08-23T18:39:09.426Z,22.5
2022-08-23T18:42:09.169Z,22.4
2022-08-23T18:45:09.201Z,22.3
2022-08-23T18:48:09.201Z,22.3
2022-08-23T18:51:19.814Z,22.2
2022-08-23T18:54:09.232Z,22.2
2022-08-23T18:57:09.205Z,22.1
2022-08-23T19:00:09.241Z,22.1
2022-08-23T19:03:11.097Z,22
2022-08-23T19:06:09.187Z,21.6
2022-08-23T19:09:09.180Z,21
2022-08-23T19:12:09.299Z,20.6
2022-08-23T19:15:09.290Z,20.2
2022-08-23T19:18:09.198Z,19.9
2022-08-23T19:21:09.176Z,19.7
2022-08-23T19:24:09.197Z,19.4
2022-08-23T19:27:09.285Z,19.4
2022-08-23T19:30:12.868Z,19.4
2022-08-23T19:33:09.676Z,19.3
2022-08-23T19:36:19.139Z,19.3
2022-08-23T19:39:09.283Z,19.2
2022-08-23T19:42:14.111Z,19.1
2022-08-23T19:45:09.225Z,19
2022-08-23T19:48:09.221Z,18.9
2022-08-23T19:51:09.180Z,18.8
2022-08-23T19:54:16.063Z,18.8
2022-08-23T19:57:09.228Z,18.7
2022-08-23T20:00:09.398Z,18.6
2022-08-23T20:03:09.801Z,18.5
2022-08-23T20:06:09.584Z,18.4
2022-08-23T20:09:09.290Z,18.4
2022-08-23T20:12:09.175Z,18.3
2022-08-23T20:15:09.334Z,18.3
2022-08-23T20:18:09.184Z,18.4
2022-08-23T20:21:09.685Z,18.3
2022-08-23T20:24:09.221Z,18.3
2022-08-23T20:27:23.938Z,18.2
2022-08-23T20:30:09.221Z,18.1
2022-08-23T20:33:09.422Z,18.1
2022-08-23T20:36:09.197Z,18
2022-08-23T20:39:09.293Z,17.9
2022-08-23T20:42:12.204Z,17.9
2022-08-23T20:45:09.342Z,17.9
2022-08-23T20:48:13.288Z,17.9
2022-08-23T20:51:09.178Z,17.9
2022-08-23T20:54:09.284Z,17.9
2022-08-23T20:57:09.385Z,17.9
2022-08-23T21:00:09.241Z,18
2022-08-23T21:03:09.703Z,18
2022-08-23T21:06:10.186Z,17.9
2022-08-23T21:09:09.236Z,18
2022-08-23T21:12:09.249Z,18.1
2022-08-23T21:15:13.454Z,17.8
2022-08-23T21:18:09.293Z,17.4
2022-08-23T21:21:09.251Z,17.3
2022-08-23T21:24:09.209Z,17.1
2022-08-23T21:27:15.929Z,16.8
2022-08-23T21:30:09.218Z,16.8
2022-08-23T21:33:09.597Z,16.6
2022-08-23T21:36:09.232Z,16.6
2022-08-23T21:39:09.194Z,16.6
2022-08-23T21:42:26.129Z,16.6
2022-08-23T21:45:11.627Z,16.6
2022-08-23T21:48:10.056Z,16.4
2022-08-23T21:51:09.206Z,16.4
2022-08-23T21:54:09.228Z,16.3
2022-08-23T21:57:09.211Z,16.1
2022-08-23T22:00:09.648Z,16
2022-08-23T22:03:10.633Z,16.1
2022-08-23T22:06:09.207Z,16.1
2022-08-23T22:09:09.181Z,16
2022-08-23T22:12:10.580Z,16
2022-08-23T22:15:09.211Z,16
2022-08-23T22:18:09.196Z,15.9
2022-08-23T22:21:09.166Z,15.9
2022-08-23T22:24:09.177Z,15.9
2022-08-23T22:27:09.263Z,15.9
2022-08-23T22:30:09.249Z,15.8
2022-08-23T22:33:09.582Z,15.8
2022-08-23T22:36:09.175Z,15.6
2022-08-23T22:39:09.418Z,15.5
2022-08-23T22:42:13.897Z,15.4
2022-08-23T22:45:09.271Z,15.4
2022-08-23T22:48:09.831Z,15.4
2022-08-23T22:51:09.210Z,15.3
2022-08-23T22:54:09.163Z,15.2
2022-08-23T22:57:09.176Z,15.1
2022-08-23T23:00:14.023Z,14.9
2022-08-23T23:03:12.638Z,14.8
2022-08-23T23:06:09.363Z,14.7
2022-08-23T23:09:09.180Z,14.6
2022-08-23T23:12:09.203Z,14.6
2022-08-23T23:15:09.928Z,14.6
2022-08-23T23:18:09.472Z,14.6
2022-08-23T23:21:09.195Z,14.6
2022-08-23T23:24:09.159Z,14.6
2022-08-23T23:27:09.229Z,14.6
2022-08-23T23:30:09.193Z,14.5
2022-08-23T23:33:09.190Z,14.5
2022-08-23T23:36:09.197Z,14.4
2022-08-23T23:39:09.199Z,14.4
2022-08-23T23:42:09.191Z,14.4
2022-08-23T23:45:09.218Z,14.3
2022-08-23T23:48:14.989Z,14.3
2022-08-23T23:51:09.200Z,14.3
2022-08-23T23:54:18.935Z,14.3
2022-08-23T23:57:09.265Z,14.3
